Campiña-Situação meteorológica que não inspira cuidado.   -   Não há avisos

Nearby METAR Reports

 

LEZL - Sevilla, Spain
Distance from station: ENE 8km
Actualizado: 29/05/2020 17:00
Céu limpo
Céu limpo
 Vento de ENE
Vento: ENE 4 km/h
Temperatura: 33°C
Ponto de Orvalho: 9°C
Humidade: 23%
Barómetro: 1011 hPa
Resumo: Céu limpo
Visibility: greater than 10 km
2020/05/29 15:00 LEZL 291500Z AUTO 07002KT CAVOK 33/09 Q1011
LEMO - Morón, Spain
Distance from station: SE 43km
Actualizado: 29/05/2020 17:00
Céu limpo
Céu limpo
 Vento de E
Vento: E 11 km/h
Temperatura: 33°C
Ponto de Orvalho: 8°C
Humidade: 21%
Barómetro: 1011 hPa
Resumo: Céu limpo
Visibility: greater than 10 km
2020/05/29 15:00 LEMO 291500Z 10006KT 020V170 CAVOK 33/08 Q1011 NOSIG
LEJR - Jeréz, Spain
Distance from station: S 71km
Actualizado: 29/05/2020 17:30
Céu limpo
Céu limpo
 Vento de varies
Vento: varies 6 km/h
Temperatura: 33°C
Ponto de Orvalho: 11°C
Humidade: 26%
Barómetro: 1011 hPa
Resumo: Céu limpo
Visibility: greater than 10 km
2020/05/29 15:30 LEJR 291530Z VRB03KT CAVOK 33/11 Q1011
 
LERT - Rota, Spain
Distance from station: SSW 89km
Actualizado: 29/05/2020 17:00
Céu limpo
Céu limpo
 Vento de W
Vento: W 17 km/h
Temperatura: 26°C
Ponto de Orvalho: 18°C
Humidade: 61%
Barómetro: 1012 hPa
Resumo: Céu limpo
Visibility: greater than 10 km
2020/05/29 15:00 LERT 291500Z 27009KT CAVOK 26/18 Q1012 NOSIG
LEMG - Málaga, Spain
Distance from station: ESE 157km
Actualizado: 29/05/2020 17:00
Céu limpo
Céu limpo
 Vento de SSE
Vento: SSE 15 km/h
Temperatura: 26°C
Ponto de Orvalho: 12°C
Humidade: 42%
Barómetro: 1014 hPa
Resumo: Céu limpo
Visibility: greater than 10 km
2020/05/29 15:00 LEMG 291500Z 15008KT 110V200 CAVOK 26/12 Q1014 NOSIG
LEBA - Córdoba, Spain
Distance from station: ENE 115km
Actualizado: 29/05/2020 17:00
Céu limpo
Céu limpo
 Vento de NE
Vento: NE 6 km/h
Temperatura: 34°C
Ponto de Orvalho: 11°C
Humidade: 24%
Barómetro: 1010 hPa
Resumo: Céu limpo
Visibility: greater than 10 km
2020/05/29 15:00 LEBA 291500Z AUTO 05003KT CAVOK 34/11 Q1010
 
LEGR - Granada, Spain
Distance from station: E 198km
Actualizado: 29/05/2020 17:00
Céu limpo
Céu limpo
 Vento de varies
Vento: varies 4 km/h
Temperatura: 32°C
Ponto de Orvalho: 8°C
Humidade: 22%
Barómetro: 1013 hPa
Resumo: Céu limpo
Visibility: greater than 10 km
2020/05/29 15:00 LEGR 291500Z AUTO VRB02KT CAVOK 32/08 Q1013
LEAM - Almería, Spain
Distance from station: E 326km
Actualizado: 29/05/2020 17:00
Céu limpo
Céu limpo
 Vento de E
Vento: E 35 km/h
Temperatura: 30°C
Ponto de Orvalho: 6°C
Humidade: 22%
Barómetro: 1012 hPa
Resumo: Céu limpo
Visibility: greater than 10 km
2020/05/29 15:00 LEAM 291500Z AUTO 08019KT 050V110 CAVOK 30/06 Q1012
LEMD - Madrid/Barajas, Spain
Distance from station: NNE 402km
Actualizado: 29/05/2020 17:00
Few Clouds
Few Clouds
 Vento de E
Vento: E 6 km/h
Temperatura: 31°C
Ponto de Orvalho: 6°C
Humidade: 21%
Barómetro: 1014 hPa
Clouds: Few Clouds
Visibility: 10 km
Cloud details: Few Clouds 914 m
2020/05/29 15:00 LEMD 291500Z 08003KT 9999 FEW030 31/06 Q1014 NOSIG
 
LEVD - Valladolid, Spain
Distance from station: N 492km
Actualizado: 29/05/2020 17:00
Céu limpo
Céu limpo
 Vento de NNW
Vento: NNW 7 km/h
Temperatura: 29°C
Ponto de Orvalho: 6°C
Humidade: 23%
Barómetro: 1016 hPa
Resumo: Céu limpo
Visibility: greater than 10 km
2020/05/29 15:00 LEVD 291500Z AUTO 33004KT CAVOK 29/06 Q1016
LEBL - Barcelona, Spain
Distance from station: NE 816km
Actualizado: 29/05/2020 17:00
Few Clouds
Few Clouds
 Vento de SSW
Vento: SSW 24 km/h
Temperatura: 23°C
Ponto de Orvalho: 18°C
Humidade: 74%
Barómetro: 1015 hPa
Clouds: Few Clouds
Visibility: 10 km
Cloud details: Few Clouds 1524 m
2020/05/29 15:00 LEBL 291500Z 21013KT 9999 FEW050 23/18 Q1015 NOSIG
LEVC - Valencia, Spain
Distance from station: ENE 535km
Actualizado: 29/05/2020 17:00
Few Clouds
Few Clouds
 Vento de ESE
Vento: ESE 26 km/h
Temperatura: 27°C
Índice de Calor: 27°C
Ponto de Orvalho: 13°C
Humidade: 42%
Barómetro: 1014 hPa
Clouds: Few Clouds
Visibility: 10 km
Cloud details: Few Clouds 1372 m
2020/05/29 15:00 LEVC 291500Z 12014KT 9999 FEW045 27/13 Q1014 NOSIG